Time;durP1;ratioP1;P1;durP2;ratioP2;P2;SDS_P1;SDS_P2;PMS_P1;PMS_P2;Temp;Humidity;BMP_temperature;BMP_pressure;BME280_temperature;BME280_humidity;BME280_pressure;Samples;Min_cycle;Max_cycle;Signal;HPM_P1;HPM_P2
2022/03/15 00:00:19;;;;;;;0.40;0.40;;;;;;;10.32;65.80;102388.19;694959;28;46207;-67
2022/03/15 00:00:40;;;;;;;0.38;0.38;;;;;;;10.29;65.91;102381.19;693184;28;115268;-68
2022/03/15 00:01:04;;;;;;;0.30;0.30;;;;;;;10.30;65.87;102380.22;696754;28;21531;-67
2022/03/15 00:01:32;;;;;;;0.32;0.32;;;;;;;10.29;65.55;102379.34;694185;28;92163;-67
2022/03/15 00:01:54;;;;;;;0.50;0.50;;;;;;;10.28;66.02;102382.19;692824;28;82271;-67
2022/03/15 00:02:15;;;;;;;0.40;0.40;;;;;;;10.27;66.17;102375.94;695686;28;22403;-67
2022/03/15 00:02:36;;;;;;;0.40;0.40;;;;;;;10.26;66.37;102390.41;696298;28;21548;-67
2022/03/15 00:02:57;;;;;;;0.30;0.30;;;;;;;10.24;66.57;102384.31;696063;28;21541;-67
2022/03/15 00:03:19;;;;;;;0.40;0.40;;;;;;;10.24;66.20;102388.84;696163;28;22417;-67
2022/03/15 00:03:40;;;;;;;0.50;0.50;;;;;;;10.26;66.14;102386.88;695113;28;47787;-67
2022/03/15 00:04:01;;;;;;;0.40;0.40;;;;;;;10.27;66.17;102380.50;696496;28;22201;-67
2022/03/15 00:04:23;;;;;;;0.40;0.40;;;;;;;10.27;66.01;102383.19;696275;28;21558;-67
2022/03/15 00:04:45;;;;;;;0.30;0.30;;;;;;;10.29;65.88;102389.31;695976;28;46457;-67
2022/03/15 00:05:07;;;;;;;0.40;0.40;;;;;;;10.29;65.70;102378.50;695334;28;45268;-67
2022/03/15 00:05:28;;;;;;;0.40;0.40;;;;;;;10.30;65.81;102385.63;695126;28;46382;-67
2022/03/15 00:05:49;;;;;;;0.40;0.40;;;;;;;10.32;65.63;102386.34;696509;28;23279;-67
2022/03/15 00:06:11;;;;;;;0.40;0.40;;;;;;;10.31;65.72;102384.59;696544;28;23449;-67
2022/03/15 00:06:34;;;;;;;0.30;0.30;;;;;;;10.33;65.39;102393.50;700135;28;44394;-67
2022/03/15 00:06:58;;;;;;;0.40;0.40;;;;;;;10.36;65.20;102400.44;700218;28;67508;-67
2022/03/15 00:07:20;;;;;;;0.50;0.50;;;;;;;10.37;64.93;102394.06;693899;28;105916;-67
2022/03/15 00:07:44;;;;;;;0.40;0.40;;;;;;;10.36;65.15;102387.81;696890;28;23629;-67
2022/03/15 00:08:06;;;;;;;0.32;0.32;;;;;;;10.34;65.45;102389.78;692441;28;90869;-67
2022/03/15 00:08:28;;;;;;;0.38;0.38;;;;;;;10.36;65.56;102389.63;694192;28;44402;-67
2022/03/15 00:08:50;;;;;;;0.50;0.50;;;;;;;10.37;65.43;102394.06;693010;28;45247;-67
2022/03/15 00:09:11;;;;;;;0.50;0.50;;;;;;;10.35;65.43;102388.78;693872;28;44305;-67
2022/03/15 00:09:32;;;;;;;0.40;0.40;;;;;;;10.35;65.57;102390.66;696215;28;22398;-67
2022/03/15 00:09:53;;;;;;;0.40;0.40;;;;;;;10.35;65.67;102396.06;696729;28;22431;-67
2022/03/15 00:10:15;;;;;;;0.40;0.40;;;;;;;10.33;65.63;102388.09;695581;28;44137;-67
2022/03/15 00:10:37;;;;;;;0.50;0.50;;;;;;;10.33;65.54;102389.91;696193;28;23512;-67
2022/03/15 00:11:02;;;;;;;0.40;0.40;;;;;;;10.33;65.42;102393.50;695590;28;46336;-67
2022/03/15 00:11:23;;;;;;;0.40;0.40;;;;;;;10.34;65.79;102391.63;693237;28;115563;-67
2022/03/15 00:11:44;;;;;;;0.40;0.40;;;;;;;10.35;64.98;102394.19;696001;28;23224;-67
2022/03/15 00:12:08;;;;;;;0.40;0.40;;;;;;;10.35;65.41;102390.66;696717;28;21506;-67
2022/03/15 00:12:30;;;;;;;0.50;0.50;;;;;;;10.35;65.42;102398.75;694105;28;92314;-67
2022/03/15 00:12:51;;;;;;;0.40;0.40;;;;;;;10.33;65.28;102388.09;696109;28;44385;-67
2022/03/15 00:13:13;;;;;;;0.40;0.40;;;;;;;10.34;65.27;102392.47;695979;28;22409;-67
2022/03/15 00:13:38;;;;;;;0.30;0.30;;;;;;;10.35;65.06;102393.34;693931;28;46435;-67
2022/03/15 00:13:59;;;;;;;0.40;0.40;;;;;;;10.34;65.45;102386.22;691864;28;115354;-67
2022/03/15 00:14:20;;;;;;;0.50;0.50;;;;;;;10.33;65.28;102393.50;695083;28;21557;-67
2022/03/15 00:14:42;;;;;;;0.40;0.40;;;;;;;10.35;65.54;102387.94;695196;28;22414;-67
2022/03/15 00:15:04;;;;;;;0.40;0.40;;;;;;;10.31;65.66;102387.31;694627;28;45343;-67
2022/03/15 00:15:26;;;;;;;0.30;0.30;;;;;;;10.31;65.58;102390.00;696085;28;44397;-67
2022/03/15 00:15:47;;;;;;;0.40;0.40;;;;;;;10.32;65.28;102383.63;695904;28;46348;-67
2022/03/15 00:16:10;;;;;;;0.50;0.50;;;;;;;10.32;65.66;102385.50;696621;28;21538;-67
2022/03/15 00:16:32;;;;;;;0.40;0.40;;;;;;;10.31;65.45;102389.16;693263;28;92209;-67
2022/03/15 00:16:53;;;;;;;0.30;0.30;;;;;;;10.31;65.48;102389.16;697346;28;1085;-67
2022/03/15 00:17:14;;;;;;;0.30;0.30;;;;;;;10.28;65.21;102385.75;696645;28;22455;-67
2022/03/15 00:17:35;;;;;;;0.40;0.40;;;;;;;10.29;65.22;102395.53;696733;28;21533;-67
2022/03/15 00:17:59;;;;;;;0.40;0.40;;;;;;;10.29;65.38;102392.00;696450;28;23278;-67
2022/03/15 00:18:20;;;;;;;0.40;0.40;;;;;;;10.28;64.78;102390.28;696704;28;90597;-67
2022/03/15 00:18:42;;;;;;;0.40;0.40;;;;;;;10.28;65.21;102388.47;698503;28;44401;-67
2022/03/15 00:19:04;;;;;;;0.40;0.40;;;;;;;10.31;64.63;102395.41;697896;28;46419;-67
2022/03/15 00:19:26;;;;;;;0.50;0.50;;;;;;;10.29;64.63;102392.00;698372;28;46344;-66
2022/03/15 00:19:47;;;;;;;0.45;0.45;;;;;;;10.30;65.14;102391.03;695231;28;44419;-67
2022/03/15 00:20:11;;;;;;;0.40;0.40;;;;;;;10.28;65.07;102391.16;696152;28;22400;-67
2022/03/15 00:20:33;;;;;;;0.30;0.30;;;;;;;10.28;64.81;102384.88;694023;28;92386;-67
2022/03/15 00:20:54;;;;;;;0.40;0.40;;;;;;;10.26;65.23;102390.41;695728;28;45287;-67
2022/03/15 00:21:16;;;;;;;0.50;0.50;;;;;;;10.26;65.09;102390.41;696178;28;23504;-67
2022/03/15 00:21:38;;;;;;;0.45;0.45;;;;;;;10.23;65.75;102384.44;693345;28;69262;-67
2022/03/15 00:21:59;;;;;;;0.40;0.40;;;;;;;10.22;65.49;102386.28;695948;28;46610;-67
2022/03/15 00:22:21;;;;;;;0.30;0.30;;;;;;;10.19;65.96;102389.25;696513;28;22420;-67
2022/03/15 00:22:44;;;;;;;0.40;0.40;;;;;;;10.18;65.99;102389.41;695330;28;45272;-67
2022/03/15 00:23:07;;;;;;;0.50;0.50;;;;;;;10.17;66.13;102384.97;693715;28;92284;-67
2022/03/15 00:23:28;;;;;;;0.50;0.50;;;;;;;10.15;66.20;102382.41;695362;28;45264;-67
2022/03/15 00:23:51;;;;;;;0.40;0.40;;;;;;;10.14;66.56;102390.63;697335;28;888;-67
2022/03/15 00:24:12;;;;;;;0.30;0.30;;;;;;;10.14;66.17;102391.50;695890;28;47012;-67
2022/03/15 00:24:34;;;;;;;0.40;0.40;;;;;;;10.15;65.87;102387.81;696542;28;21554;-67
2022/03/15 00:24:55;;;;;;;0.40;0.40;;;;;;;10.13;66.06;102389.78;695589;28;46338;-67
2022/03/15 00:25:18;;;;;;;0.40;0.40;;;;;;;10.13;66.31;102392.50;696515;28;22397;-67
2022/03/15 00:25:39;;;;;;;0.38;0.38;;;;;;;10.13;66.53;102388.94;694648;28;68576;-67
2022/03/15 00:26:00;;;;;;;0.30;0.30;;;;;;;10.13;66.37;102389.78;696789;28;22397;-67
2022/03/15 00:26:22;;;;;;;0.38;0.38;;;;;;;10.13;66.32;102387.09;696501;28;20841;-67
2022/03/15 00:26:44;;;;;;;0.30;0.30;;;;;;;10.13;66.08;102389.78;695139;28;44401;-67
2022/03/15 00:27:06;;;;;;;0.30;0.30;;;;;;;10.13;66.37;102394.34;695764;28;44401;-67
2022/03/15 00:27:27;;;;;;;0.30;0.30;;;;;;;10.10;66.48;102390.06;695276;28;45328;-67
2022/03/15 00:27:51;;;;;;;0.32;0.32;;;;;;;10.12;66.10;102389.94;696324;28;21523;-67
2022/03/15 00:28:12;;;;;;;0.45;0.45;;;;;;;10.10;66.35;102388.19;693713;28;92761;-67
2022/03/15 00:28:35;;;;;;;0.50;0.50;;;;;;;10.08;66.62;102397.44;695604;28;44453;-67
2022/03/15 00:28:57;;;;;;;0.40;0.40;;;;;;;10.06;66.78;102394.88;696506;28;22394;-67
2022/03/15 00:29:21;;;;;;;0.30;0.30;;;;;;;10.05;66.65;102392.31;695421;28;46308;-67
2022/03/15 00:29:42;;;;;;;0.40;0.40;;;;;;;10.05;66.70;102392.31;691964;28;92108;-67
2022/03/15 00:30:05;;;;;;;0.40;0.40;;;;;;;10.05;66.58;102392.31;694962;28;23480;-67
2022/03/15 00:30:27;;;;;;;0.40;0.40;;;;;;;10.04;66.78;102394.13;689284;28;92618;-68
2022/03/15 00:30:49;;;;;;;0.40;0.40;;;;;;;10.04;66.61;102390.59;689711;28;92316;-67
2022/03/15 00:31:10;;;;;;;0.30;0.30;;;;;;;10.05;66.15;102386.91;693181;28;21533;-67
2022/03/15 00:31:31;;;;;;;0.40;0.40;;;;;;;10.07;66.31;102399.28;694497;28;23486;-67
2022/03/15 00:31:54;;;;;;;0.47;0.47;;;;;;;10.05;65.96;102382.34;692858;28;44392;-67
2022/03/15 00:32:17;;;;;;;0.40;0.40;;;;;;;10.06;66.00;102388.59;693465;28;45284;-67
2022/03/15 00:32:39;;;;;;;0.40;0.40;;;;;;;10.05;66.22;102387.75;694738;28;68349;-67
2022/03/15 00:33:01;;;;;;;0.30;0.30;;;;;;;10.04;66.52;102391.44;693453;28;22373;-67
2022/03/15 00:33:24;;;;;;;0.50;0.50;;;;;;;10.04;66.29;102388.75;692384;28;46446;-67
2022/03/15 00:33:45;;;;;;;0.47;0.47;;;;;;;10.04;66.59;102393.28;690650;28;93007;-67
2022/03/15 00:34:09;;;;;;;0.40;0.40;;;;;;;10.04;66.57;102388.75;691741;28;67519;-67
2022/03/15 00:34:31;;;;;;;0.40;0.40;;;;;;;10.04;66.18;102393.28;693801;28;22377;-67
2022/03/15 00:34:52;;;;;;;0.40;0.40;;;;;;;10.03;66.38;102397.84;693237;28;44389;-67
2022/03/15 00:35:16;;;;;;;0.50;0.50;;;;;;;10.02;66.54;102395.28;696127;28;21557;-67
2022/03/15 00:35:38;;;;;;;0.50;0.50;;;;;;;10.02;66.58;102395.28;693922;28;115046;-67
2022/03/15 00:35:59;;;;;;;0.40;0.40;;;;;;;10.00;66.58;102386.44;695482;28;69489;-67
2022/03/15 00:36:20;;;;;;;0.30;0.30;;;;;;;9.99;66.78;102393.69;694991;28;47038;-67
2022/03/15 00:36:43;;;;;;;0.40;0.40;;;;;;;9.97;66.93;102387.56;695069;28;44483;-67
2022/03/15 00:37:04;;;;;;;0.50;0.50;;;;;;;9.99;67.07;102395.53;691993;28;44486;-67
2022/03/15 00:37:31;;;;;;;0.40;0.40;;;;;;;9.92;66.79;102381.69;688881;28;160295;-67
2022/03/15 00:37:56;;;;;;;0.40;0.40;;;;;;;9.95;66.92;102386.00;689040;28;115458;-67
2022/03/15 00:38:18;;;;;;;0.38;0.38;;;;;;;9.94;66.96;102390.53;691753;28;67547;-67
2022/03/15 00:38:41;;;;;;;0.50;0.50;;;;;;;9.94;66.85;102387.84;694811;28;22486;-67
2022/03/15 00:39:02;;;;;;;0.50;0.50;;;;;;;9.93;67.06;102392.34;693712;28;90553;-67
2022/03/15 00:39:23;;;;;;;0.40;0.40;;;;;;;9.93;67.16;102389.66;696735;28;22371;-67
2022/03/15 00:39:46;;;;;;;0.40;0.40;;;;;;;9.92;67.06;102381.69;696664;28;23365;-67
2022/03/15 00:40:08;;;;;;;0.30;0.30;;;;;;;9.91;66.86;102382.72;698248;28;46331;-67
2022/03/15 00:40:29;;;;;;;0.50;0.50;;;;;;;9.90;66.90;102383.69;692640;28;45250;-67
2022/03/15 00:40:51;;;;;;;0.47;0.47;;;;;;;9.90;66.82;102379.13;693538;28;22403;-67
2022/03/15 00:41:16;;;;;;;0.40;0.40;;;;;;;9.91;67.14;102385.41;689954;28;137809;-67
2022/03/15 00:41:38;;;;;;;0.40;0.40;;;;;;;9.90;67.09;102378.28;691215;28;67495;-67
2022/03/15 00:41:59;;;;;;;0.40;0.40;;;;;;;9.90;67.22;102383.69;696287;28;21464;-67
2022/03/15 00:42:21;;;;;;;0.50;0.50;;;;;;;9.89;66.99;102382.84;698538;28;23489;-67
2022/03/15 00:42:49;;;;;;;0.50;0.50;;;;;;;9.86;67.29;102371.47;698127;28;44385;-67
2022/03/15 00:43:10;;;;;;;0.40;0.40;;;;;;;9.86;67.23;102374.16;694561;28;137791;-67
2022/03/15 00:43:31;;;;;;;0.40;0.40;;;;;;;9.85;67.24;102380.53;698860;28;23512;-67
2022/03/15 00:43:53;;;;;;;0.40;0.40;;;;;;;9.86;67.16;102376.84;698027;28;23476;-68
2022/03/15 00:44:18;;;;;;;0.50;0.50;;;;;;;9.84;67.35;102376.13;693068;28;115026;-67
2022/03/15 00:44:39;;;;;;;0.40;0.40;;;;;;;9.84;67.32;102373.41;695733;28;44067;-67
2022/03/15 00:45:01;;;;;;;0.40;0.40;;;;;;;9.84;67.41;102382.38;696847;28;22396;-67
2022/03/15 00:45:25;;;;;;;0.40;0.40;;;;;;;9.84;67.42;102382.38;691383;28;92299;-67
2022/03/15 00:45:46;;;;;;;0.40;0.40;;;;;;;9.84;67.34;102378.81;692865;28;46117;-67
2022/03/15 00:46:08;;;;;;;0.40;0.40;;;;;;;9.85;67.51;102375.13;693449;28;21541;-67
2022/03/15 00:46:29;;;;;;;0.40;0.40;;;;;;;9.84;67.33;102377.00;692359;28;46299;-67
2022/03/15 00:46:52;;;;;;;0.32;0.32;;;;;;;9.84;67.34;102373.41;694027;28;22389;-67
2022/03/15 00:47:13;;;;;;;0.30;0.30;;;;;;;9.86;67.51;102380.41;692512;28;67508;-67
2022/03/15 00:47:36;;;;;;;0.40;0.40;;;;;;;9.86;67.21;102371.47;694975;28;69545;-67
2022/03/15 00:47:58;;;;;;;0.40;0.40;;;;;;;9.86;67.24;102380.41;696709;28;23841;-67
2022/03/15 00:48:19;;;;;;;0.40;0.40;;;;;;;9.89;67.21;102379.25;695395;28;46429;-67
2022/03/15 00:48:40;;;;;;;0.30;0.30;;;;;;;9.87;66.97;102379.44;696033;28;22405;-67
2022/03/15 00:49:02;;;;;;;0.30;0.30;;;;;;;9.87;66.89;102375.84;695812;28;23308;-67
2022/03/15 00:49:26;;;;;;;0.40;0.40;;;;;;;9.88;67.02;102380.28;693999;28;92475;-67
2022/03/15 00:49:48;;;;;;;0.40;0.40;;;;;;;9.85;67.00;102373.28;694160;28;68376;-67
2022/03/15 00:50:10;;;;;;;0.40;0.40;;;;;;;9.85;67.17;102381.38;693469;28;21536;-67
2022/03/15 00:50:37;;;;;;;0.40;0.40;;;;;;;9.84;67.15;102381.50;693067;28;46316;-67
2022/03/15 00:50:58;;;;;;;0.38;0.38;;;;;;;9.83;66.86;102377.13;690818;28;138041;-67
2022/03/15 00:51:19;;;;;;;0.50;0.50;;;;;;;9.84;66.80;102379.69;696242;28;22313;-67
2022/03/15 00:51:41;;;;;;;0.47;0.47;;;;;;;9.84;66.74;102377.00;689969;28;21520;-67
2022/03/15 00:52:03;;;;;;;0.40;0.40;;;;;;;9.83;66.83;102383.38;688597;28;43822;-67
2022/03/15 00:52:25;;;;;;;0.30;0.30;;;;;;;9.82;67.00;102380.78;691399;28;21248;-67
2022/03/15 00:52:46;;;;;;;0.30;0.30;;;;;;;9.83;66.69;102377.13;692020;28;69468;-67
2022/03/15 00:53:09;;;;;;;0.40;0.40;;;;;;;9.81;66.80;102379.06;693273;28;22318;-68
2022/03/15 00:53:31;;;;;;;0.40;0.40;;;;;;;9.82;66.93;102381.63;694222;28;69401;-67
2022/03/15 00:53:52;;;;;;;0.40;0.40;;;;;;;9.85;66.71;102388.63;698873;28;45259;-67
2022/03/15 00:54:13;;;;;;;0.30;0.30;;;;;;;9.85;66.66;102384.06;701072;28;21589;-67
2022/03/15 00:54:35;;;;;;;0.40;0.40;;;;;;;9.86;66.39;102382.25;698056;28;22405;-67
2022/03/15 00:54:56;;;;;;;0.50;0.50;;;;;;;9.85;66.30;102383.22;698136;28;22440;-67
2022/03/15 00:55:18;;;;;;;0.40;0.40;;;;;;;9.84;66.41;102392.31;696034;28;23497;-67
2022/03/15 00:55:39;;;;;;;0.40;0.40;;;;;;;9.80;66.86;102386.31;694830;28;69333;-67
2022/03/15 00:56:01;;;;;;;0.30;0.30;;;;;;;9.81;66.37;102385.34;696392;28;22428;-67
2022/03/15 00:56:22;;;;;;;0.40;0.40;;;;;;;9.81;66.60;102390.75;691054;28;47068;-68
2022/03/15 00:56:44;;;;;;;0.50;0.50;;;;;;;9.80;66.42;102386.31;692463;28;22211;-67
2022/03/15 00:57:06;;;;;;;0.50;0.50;;;;;;;9.77;66.53;102383.88;689253;28;46484;-68
2022/03/15 00:57:27;;;;;;;0.40;0.40;;;;;;;9.78;66.81;102390.13;694555;28;1690;-67
2022/03/15 00:57:49;;;;;;;0.40;0.40;;;;;;;9.74;66.81;102385.00;690947;28;23378;-67
2022/03/15 00:58:10;;;;;;;0.40;0.40;;;;;;;9.74;66.82;102393.09;690905;28;44301;-67
2022/03/15 00:58:33;;;;;;;0.50;0.50;;;;;;;9.71;66.83;102390.66;688565;28;92562;-67
2022/03/15 00:58:56;;;;;;;0.40;0.40;;;;;;;9.74;66.74;102394.94;689331;28;67378;-67
2022/03/15 00:59:19;;;;;;;0.40;0.40;;;;;;;9.73;66.92;102388.69;690777;28;45302;-67
2022/03/15 00:59:40;;;;;;;0.30;0.30;;;;;;;9.73;66.86;102393.22;690545;28;69467;-67
2022/03/15 01:00:03;;;;;;;0.40;0.40;;;;;;;9.74;66.89;102389.53;693795;28;22405;-67
2022/03/15 01:00:27;;;;;;;0.50;0.50;;;;;;;9.74;66.96;102382.28;696167;28;28661;-67
2022/03/15 01:00:50;;;;;;;0.40;0.40;;;;;;;9.73;66.62;102385.13;696695;28;92305;-67
2022/03/15 01:01:11;;;;;;;0.40;0.40;;;;;;;9.75;66.84;102388.56;696298;28;44568;-67
2022/03/15 01:01:32;;;;;;;0.30;0.30;;;;;;;9.73;66.93;102383.31;693599;28;22055;-67
2022/03/15 01:01:53;;;;;;;0.40;0.40;;;;;;;9.71;66.84;102379.84;695222;28;45275;-67
2022/03/15 01:02:15;;;;;;;0.50;0.50;;;;;;;9.69;67.00;102376.44;695025;28;46391;-67
2022/03/15 01:02:37;;;;;;;0.50;0.50;;;;;;;9.69;66.87;102384.53;695640;28;46298;-67
2022/03/15 01:03:02;;;;;;;0.40;0.40;;;;;;;9.70;66.66;102375.47;692779;28;113593;-67
2022/03/15 01:03:24;;;;;;;0.30;0.30;;;;;;;9.71;66.80;102377.16;695315;28;44223;-67
2022/03/15 01:03:46;;;;;;;0.40;0.40;;;;;;;9.70;67.15;102371.91;695743;28;46329;-67
2022/03/15 01:04:07;;;;;;;0.50;0.50;;;;;;;9.69;67.17;102381.84;696856;28;3763;-67
2022/03/15 01:04:28;;;;;;;0.40;0.40;;;;;;;9.70;67.13;102377.28;696610;28;21528;-67
2022/03/15 01:04:49;;;;;;;0.40;0.40;;;;;;;9.70;67.09;102378.16;696276;28;22392;-67
2022/03/15 01:05:13;;;;;;;0.30;0.30;;;;;;;9.68;66.89;102374.72;693885;28;64122;-67
2022/03/15 01:05:34;;;;;;;0.40;0.40;;;;;;;9.69;66.88;102373.75;693709;28;41356;-67
2022/03/15 01:05:57;;;;;;;0.40;0.40;;;;;;;9.67;67.11;102373.03;694989;28;20773;-67
2022/03/15 01:06:18;;;;;;;0.40;0.40;;;;;;;9.67;66.95;102375.72;692998;28;69453;-67
2022/03/15 01:06:42;;;;;;;0.40;0.40;;;;;;;9.66;67.15;102373.16;693861;28;22417;-67
2022/03/15 01:07:03;;;;;;;0.30;0.30;;;;;;;9.65;66.97;102377.69;694108;28;92389;-67
2022/03/15 01:07:24;;;;;;;0.40;0.40;;;;;;;9.66;66.83;102381.25;695372;28;46268;-67
2022/03/15 01:07:45;;;;;;;0.47;0.47;;;;;;;9.64;66.78;102376.00;696355;28;22397;-68
2022/03/15 01:08:11;;;;;;;0.40;0.40;;;;;;;9.63;67.07;102374.28;694204;28;69454;-68
2022/03/15 01:08:32;;;;;;;0.40;0.40;;;;;;;9.63;67.39;102370.72;692382;28;69464;-67
2022/03/15 01:08:53;;;;;;;0.30;0.30;;;;;;;9.65;67.35;102376.84;692830;28;21515;-67
2022/03/15 01:09:14;;;;;;;0.40;0.40;;;;;;;9.61;67.17;102375.38;689884;28;22453;-67
2022/03/15 01:09:35;;;;;;;0.40;0.40;;;;;;;9.63;67.03;102381.53;690074;28;22436;-68
2022/03/15 01:09:57;;;;;;;0.40;0.40;;;;;;;9.60;67.63;102374.53;689445;28;23584;-67
2022/03/15 01:10:18;;;;;;;0.30;0.30;;;;;;;9.62;67.34;102379.78;688115;28;46964;-67
2022/03/15 01:10:40;;;;;;;0.30;0.30;;;;;;;9.61;67.24;102368.16;690115;28;46775;-67
2022/03/15 01:11:03;;;;;;;0.40;0.40;;;;;;;9.59;67.53;102367.41;690215;28;45928;-67
2022/03/15 01:11:25;;;;;;;0.40;0.40;;;;;;;9.62;67.51;102374.41;691270;28;45260;-67
2022/03/15 01:11:46;;;;;;;0.40;0.40;;;;;;;9.58;67.22;102365.72;691197;28;46430;-67
2022/03/15 01:12:09;;;;;;;0.30;0.30;;;;;;;9.58;67.49;102365.72;692725;28;47613;-67
2022/03/15 01:12:31;;;;;;;0.30;0.30;;;;;;;9.60;67.29;102371.00;692438;28;45304;-67
2022/03/15 01:12:53;;;;;;;0.40;0.40;;;;;;;9.56;67.41;102368.56;692951;28;45286;-67
2022/03/15 01:13:14;;;;;;;0.50;0.50;;;;;;;9.59;67.37;102369.28;692705;28;44103;-67
2022/03/15 01:13:35;;;;;;;0.40;0.40;;;;;;;9.58;67.31;102368.41;694171;28;22397;-67
2022/03/15 01:13:57;;;;;;;0.30;0.30;;;;;;;9.56;67.32;102360.47;689779;28;46348;-67
2022/03/15 01:14:20;;;;;;;0.30;0.30;;;;;;;9.56;67.26;102357.75;691894;28;22414;-67
2022/03/15 01:14:41;;;;;;;0.40;0.40;;;;;;;9.56;67.38;102360.47;691483;28;69258;-67
2022/03/15 01:15:02;;;;;;;0.40;0.40;;;;;;;9.57;67.23;102362.16;693514;28;23445;-68
2022/03/15 01:15:25;;;;;;;0.40;0.40;;;;;;;9.59;67.39;102370.09;693222;28;46309;-67
2022/03/15 01:15:46;;;;;;;0.30;0.30;;;;;;;9.58;67.23;102365.72;691529;28;46642;-67
2022/03/15 01:16:07;;;;;;;0.30;0.30;;;;;;;9.56;67.05;102364.97;695570;28;22293;-67
2022/03/15 01:16:29;;;;;;;0.40;0.40;;;;;;;9.59;67.18;102364.72;696334;28;23318;-67
2022/03/15 01:16:53;;;;;;;0.40;0.40;;;;;;;9.59;67.17;102369.28;689366;28;111608;-67
2022/03/15 01:17:15;;;;;;;0.40;0.40;;;;;;;9.57;67.24;102364.00;686565;28;67604;-67
2022/03/15 01:17:38;;;;;;;0.30;0.30;;;;;;;9.57;67.52;102361.31;687347;28;92828;-67
2022/03/15 01:17:59;;;;;;;0.30;0.30;;;;;;;9.57;67.47;102362.16;691162;28;21303;-67
2022/03/15 01:18:20;;;;;;;0.40;0.40;;;;;;;9.58;67.51;102368.41;690887;28;22412;-67
2022/03/15 01:18:43;;;;;;;0.45;0.45;;;;;;;9.57;67.33;102366.69;691756;28;21555;-67
2022/03/15 01:19:07;;;;;;;0.40;0.40;;;;;;;9.57;67.25;102364.00;690586;28;69773;-67
2022/03/15 01:19:29;;;;;;;0.40;0.40;;;;;;;9.61;67.02;102370.84;692469;28;90383;-67
2022/03/15 01:19:50;;;;;;;0.30;0.30;;;;;;;9.60;67.00;102368.28;695676;28;47340;-67
2022/03/15 01:20:14;;;;;;;0.45;0.45;;;;;;;9.61;67.07;102367.28;693613;28;46305;-67
2022/03/15 01:20:35;;;;;;;0.50;0.50;;;;;;;9.66;66.59;102370.47;691169;28;68133;-67
2022/03/15 01:20:56;;;;;;;0.40;0.40;;;;;;;9.65;66.86;102361.50;693814;28;22397;-67
2022/03/15 01:21:19;;;;;;;0.40;0.40;;;;;;;9.65;66.71;102366.03;694120;28;69579;-67
2022/03/15 01:21:41;;;;;;;0.30;0.30;;;;;;;9.67;66.81;102366.75;698141;28;4120;-67
2022/03/15 01:22:04;;;;;;;0.47;0.47;;;;;;;9.67;66.94;102369.47;698700;28;46323;-67
2022/03/15 01:22:25;;;;;;;0.50;0.50;;;;;;;9.67;66.73;102369.47;696645;28;69408;-67
2022/03/15 01:22:46;;;;;;;0.40;0.40;;;;;;;9.66;66.78;102365.91;701145;28;23458;-67
2022/03/15 01:23:10;;;;;;;0.32;0.32;;;;;;;9.67;66.55;102373.03;698724;28;1331;-67
2022/03/15 01:23:32;;;;;;;0.30;0.30;;;;;;;9.69;66.34;102375.59;693798;28;67639;-67
2022/03/15 01:23:54;;;;;;;0.47;0.47;;;;;;;9.68;66.35;102374.72;692005;28;69446;-67
2022/03/15 01:24:15;;;;;;;0.50;0.50;;;;;;;9.67;66.27;102373.03;693321;28;22395;-68
2022/03/15 01:24:36;;;;;;;0.40;0.40;;;;;;;9.70;66.28;102377.28;693914;28;23482;-68
2022/03/15 01:24:58;;;;;;;0.40;0.40;;;;;;;9.69;66.35;102372.91;691206;28;23433;-67
2022/03/15 01:25:19;;;;;;;0.40;0.40;;;;;;;9.68;66.37;102374.72;693387;28;46577;-67
2022/03/15 01:25:40;;;;;;;0.45;0.45;;;;;;;9.68;66.24;102373.88;696473;28;22376;-67
2022/03/15 01:26:03;;;;;;;0.50;0.50;;;;;;;9.69;66.19;102381.00;694353;28;67502;-67
2022/03/15 01:26:26;;;;;;;0.40;0.40;;;;;;;9.68;66.30;102377.44;696321;28;22228;-67
2022/03/15 01:26:49;;;;;;;0.30;0.30;;;;;;;9.69;65.91;102381.00;693562;28;69434;-67
2022/03/15 01:27:11;;;;;;;0.30;0.30;;;;;;;9.67;66.25;102374.84;694468;28;69269;-67
2022/03/15 01:27:32;;;;;;;0.50;0.50;;;;;;;9.67;66.15;102370.34;695614;28;45291;-67
2022/03/15 01:27:55;;;;;;;0.50;0.50;;;;;;;9.66;66.24;102376.72;692657;28;45381;-67
2022/03/15 01:28:16;;;;;;;0.40;0.40;;;;;;;9.62;66.29;102372.56;692604;28;67214;-67
2022/03/15 01:28:37;;;;;;;0.40;0.40;;;;;;;9.65;66.20;102368.75;693396;28;22421;-67
2022/03/15 01:28:59;;;;;;;0.30;0.30;;;;;;;9.65;66.26;102374.97;692298;28;23416;-67
2022/03/15 01:29:20;;;;;;;0.40;0.40;;;;;;;9.65;66.53;102371.44;692075;28;23485;-67
2022/03/15 01:29:42;;;;;;;0.50;0.50;;;;;;;9.65;66.18;102374.16;690955;28;46328;-67
2022/03/15 01:30:05;;;;;;;0.40;0.40;;;;;;;9.61;66.09;102365.47;695553;28;44418;-67
2022/03/15 01:30:26;;;;;;;0.30;0.30;;;;;;;9.60;66.31;102371.84;695754;28;62457;-67
2022/03/15 01:30:47;;;;;;;0.30;0.30;;;;;;;9.60;66.48;102371.84;696636;28;22417;-67
2022/03/15 01:31:11;;;;;;;0.40;0.40;;;;;;;9.57;66.36;102364.84;698569;28;22409;-67
2022/03/15 01:31:32;;;;;;;0.47;0.47;;;;;;;9.57;66.55;102369.41;692889;28;88735;-67
2022/03/15 01:31:53;;;;;;;0.40;0.40;;;;;;;9.54;66.54;102372.34;695460;28;22485;-67
2022/03/15 01:32:16;;;;;;;0.40;0.40;;;;;;;9.52;66.72;102368.94;692167;28;46386;-67
2022/03/15 01:32:43;;;;;;;0.38;0.38;;;;;;;9.50;66.95;102370.91;688078;28;136519;-67
2022/03/15 01:33:04;;;;;;;0.50;0.50;;;;;;;9.49;66.85;102371.91;695134;28;46395;-67
2022/03/15 01:33:26;;;;;;;0.50;0.50;;;;;;;9.45;67.29;102363.22;697258;28;21526;-67
2022/03/15 01:33:47;;;;;;;0.40;0.40;;;;;;;9.44;67.02;102364.19;697371;28;67536;-67
2022/03/15 01:34:08;;;;;;;0.30;0.30;;;;;;;9.42;67.25;102368.88;698310;28;45354;-67
2022/03/15 01:34:30;;;;;;;0.30;0.30;;;;;;;9.42;67.43;102370.69;698944;28;23648;-67
2022/03/15 01:34:51;;;;;;;0.43;0.43;;;;;;;9.41;67.06;102371.69;700077;28;44451;-68
2022/03/15 01:35:13;;;;;;;0.40;0.40;;;;;;;9.38;67.28;102364.72;698739;28;22398;-67
2022/03/15 01:35:35;;;;;;;0.40;0.40;;;;;;;9.40;67.08;102372.66;699030;28;23512;-68
2022/03/15 01:35:56;;;;;;;0.40;0.40;;;;;;;9.40;67.10;102373.53;698567;28;44424;-67
2022/03/15 01:36:17;;;;;;;0.30;0.30;;;;;;;9.40;67.03;102372.66;696290;28;9878;-67
2022/03/15 01:36:38;;;;;;;0.40;0.40;;;;;;;9.40;67.16;102376.22;697966;28;22229;-67
2022/03/15 01:37:00;;;;;;;0.40;0.40;;;;;;;9.37;67.30;102374.66;695375;28;23343;-67
2022/03/15 01:37:22;;;;;;;0.40;0.40;;;;;;;9.38;67.25;102375.50;693150;28;92363;-67
2022/03/15 01:37:44;;;;;;;0.40;0.40;;;;;;;9.36;67.51;102375.63;696466;28;21569;-67
2022/03/15 01:38:06;;;;;;;0.35;0.35;;;;;;;9.37;67.53;102366.56;696202;28;22394;-67
2022/03/15 01:38:29;;;;;;;0.50;0.50;;;;;;;9.36;67.46;102374.78;691323;28;67315;-67
2022/03/15 01:38:52;;;;;;;0.45;0.45;;;;;;;9.36;67.54;102375.63;692458;28;68763;-67
2022/03/15 01:39:13;;;;;;;0.40;0.40;;;;;;;9.35;67.33;102371.22;692568;28;44432;-67
2022/03/15 01:39:37;;;;;;;0.40;0.40;;;;;;;9.32;67.57;102374.16;690597;28;92297;-68
2022/03/15 01:39:58;;;;;;;0.32;0.32;;;;;;;9.32;67.42;102374.16;693428;28;46313;-68
2022/03/15 01:40:20;;;;;;;0.50;0.50;;;;;;;9.31;67.55;102369.78;695733;28;22332;-67
2022/03/15 01:40:41;;;;;;;0.50;0.50;;;;;;;9.31;67.55;102375.16;695258;28;46498;-67
2022/03/15 01:41:06;;;;;;;0.40;0.40;;;;;;;9.29;67.46;102369.03;695697;28;67504;-67
2022/03/15 01:41:27;;;;;;;0.30;0.30;;;;;;;9.29;67.41;102371.72;694649;28;46469;-67
2022/03/15 01:41:48;;;;;;;0.38;0.38;;;;;;;9.29;67.42;102370.88;670376;28;66143;-67
2022/03/15 01:42:09;;;;;;;0.50;0.50;;;;;;;9.29;67.63;102373.56;696040;28;23417;-67
2022/03/15 01:42:31;;;;;;;0.45;0.45;;;;;;;9.27;67.75;102380.94;696128;28;23428;-67
2022/03/15 01:42:52;;;;;;;0.40;0.40;;;;;;;9.23;67.52;102364.16;695957;28;44186;-67
2022/03/15 01:43:14;;;;;;;0.40;0.40;;;;;;;9.25;67.85;102367.59;697163;28;23545;-67
2022/03/15 01:43:35;;;;;;;0.40;0.40;;;;;;;9.25;67.61;102374.81;697590;28;22416;-68
2022/03/15 01:43:58;;;;;;;0.50;0.50;;;;;;;9.24;67.63;102371.25;695673;28;45266;-68
2022/03/15 01:44:20;;;;;;;0.50;0.50;;;;;;;9.26;67.70;102371.13;693677;28;46435;-68
2022/03/15 01:44:45;;;;;;;0.40;0.40;;;;;;;9.26;67.71;102373.81;693912;28;67407;-67